Dennis Landing, Mississippi
Current Conditions -  °F | °C
As of 4:15 AM on Monday 26 Jan 2015 (Local Time) from KRNV Reporting Station
Overcast Overcast  
Wind Chill: 37°   Ceiling: 2800
Heat Index: 43°   Visibility: 10mi
Dew Point: 37°   Wind: 12mph
Humidity: 78%   Direction: 340°NNW
Pressure: 30.06"   Gusts: NA
Location:  33.9429°N, 90.9264°W
Report Text: KRNV 261015Z AUTO 34010KT 10SM OVC028 06/03 A3006 RMK AO2 T00610026
Loading
Personal Weather Stations






























Interactive Weather Map New forecast layout! Learn more

10-Day Weather Forecast

Advertisements
Track Severe Weather on mobile